Altair — 9LC2000 — position and weather

sailwx.info

Track history (hours):
 
Tides and Currents Weather Stations Pressure Air Temp Water Temp Dewpoint Dewpoint Depression Visibility Wind Speed Wind Dir Waves Ship Positions

Altair

Last reported at 2014-Sep-17 17:07 UTC. Time now 2014-Sep-30 12:02 UTC.
Position N 34°40' E 033°23'.
Warning: this ship's position is 12 days out of date.

Length 108 m; draft 3.7 m.

Type: Cargo ship. MMSI: 667021000.

Date/timePositionNaut miles runAvg speedWind from/ knotsBaromVisibWave heightAir tempDewpointWater temp
2014-Sep-17 17:07N 34°40' E 033°23'4 7.7
2014-Sep-17 16:33N 34°38' E 033°19'8 8.5
2014-Sep-17 15:33N 34°34' E 033°10'8 8.2
2014-Sep-17 14:33N 34°30' E 033°01'8 8.0
2014-Sep-17 13:34N 34°30' E 032°51'7 7.1
2014-Sep-17 12:33N 34°32' E 032°43'10 7.5
2014-Sep-17 11:14N 34°37' E 032°33'263 7.3
2014-Sep-15 23:27N 36°30' E 027°41'29 7.4
2014-Sep-15 19:31N 36°31' E 027°05'7 6.9
2014-Sep-15 18:33N 36°35' E 026°58'18 7.9
2014-Sep-15 16:16N 36°49' E 026°45'6 7.9
2014-Sep-15 15:33N 36°54' E 026°40'9 7.8
2014-Sep-15 14:22N 37°01' E 026°33'6 7.8
2014-Sep-15 13:33N 37°06' E 026°28'8 7.6
2014-Sep-15 12:33N 37°11' E 026°21'8 7.8
2014-Sep-15 11:33N 37°16' E 026°14'8 7.6
2014-Sep-15 10:32N 37°21' E 026°07'10 7.7
2014-Sep-15 09:16N 37°28' E 025°58'5 7.0
2014-Sep-15 08:30N 37°33' E 025°55'42 7.0
2014-Sep-15 02:25N 38°15' E 025°48'216 6.7
2014-Sep-13 18:24N 40°57' E 028°54'2 1.1
2014-Sep-13 16:32N 40°58' E 028°55'  
2014-Sep-11 09:17N 44°17' E 034°19'6 7.9
2014-Sep-11 08:33N 44°20' E 034°26'8 8.0
2014-Sep-11 07:33N 44°24' E 034°35'8 8.2
2014-Sep-11 06:33N 44°29' E 034°45'8 8.3
2014-Sep-11 05:33N 44°33' E 034°55'8 8.3
2014-Sep-11 04:33N 44°37' E 035°06'  
Track history (hours):
 
Tides and Currents Weather Stations Pressure Air Temp Water Temp Dewpoint Dewpoint Depression Visibility Wind Speed Wind Dir Waves Ship Positions

Altair

Last reported at 2014-Sep-17 17:07 UTC. Time now 2014-Sep-30 12:02 UTC.
Position N 34°40' E 033°23'.
Warning: this ship's position is 12 days out of date.

Length 108 m; draft 3.7 m.

Type: Cargo ship. MMSI: 667021000.

Date/timePositionNaut miles runAvg speedWind from/ knotsBaromVisibWave heightAir tempDewpointWater temp
2014-Sep-17 17:07N 34°40' E 033°23'4 7.7
2014-Sep-17 16:33N 34°38' E 033°19'8 8.5
2014-Sep-17 15:33N 34°34' E 033°10'8 8.2
2014-Sep-17 14:33N 34°30' E 033°01'8 8.0
2014-Sep-17 13:34N 34°30' E 032°51'7 7.1
2014-Sep-17 12:33N 34°32' E 032°43'10 7.5
2014-Sep-17 11:14N 34°37' E 032°33'263 7.3
2014-Sep-15 23:27N 36°30' E 027°41'29 7.4
2014-Sep-15 19:31N 36°31' E 027°05'7 6.9
2014-Sep-15 18:33N 36°35' E 026°58'18 7.9
2014-Sep-15 16:16N 36°49' E 026°45'6 7.9
2014-Sep-15 15:33N 36°54' E 026°40'9 7.8
2014-Sep-15 14:22N 37°01' E 026°33'6 7.8
2014-Sep-15 13:33N 37°06' E 026°28'8 7.6
2014-Sep-15 12:33N 37°11' E 026°21'8 7.8
2014-Sep-15 11:33N 37°16' E 026°14'8 7.6
2014-Sep-15 10:32N 37°21' E 026°07'10 7.7
2014-Sep-15 09:16N 37°28' E 025°58'5 7.0
2014-Sep-15 08:30N 37°33' E 025°55'42 7.0
2014-Sep-15 02:25N 38°15' E 025°48'216 6.7
2014-Sep-13 18:24N 40°57' E 028°54'2 1.1
2014-Sep-13 16:32N 40°58' E 028°55'  
2014-Sep-11 09:17N 44°17' E 034°19'6 7.9
2014-Sep-11 08:33N 44°20' E 034°26'8 8.0
2014-Sep-11 07:33N 44°24' E 034°35'8 8.2
2014-Sep-11 06:33N 44°29' E 034°45'8 8.3
2014-Sep-11 05:33N 44°33' E 034°55'8 8.3
2014-Sep-11 04:33N 44°37' E 035°06'  

Dump ship's entire track history